sensor_id;sensor_type;location;lat;lon;timestamp;pressure;altitude;pressure_sealevel;temperature;humidity
18918;BME280;9591;52.742;13.650;2022-07-23T00:02:39;101234.03;;;14.82;100.00
18918;BME280;9591;52.742;13.650;2022-07-23T00:05:26;101236.25;;;14.72;100.00
18918;BME280;9591;52.742;13.650;2022-07-23T00:08:13;101236.31;;;14.70;100.00
18918;BME280;9591;52.742;13.650;2022-07-23T00:11:01;101226.44;;;14.72;100.00
18918;BME280;9591;52.742;13.650;2022-07-23T00:13:50;101226.56;;;14.69;100.00
18918;BME280;9591;52.742;13.650;2022-07-23T00:16:38;101203.22;;;14.54;100.00
18918;BME280;9591;52.742;13.650;2022-07-23T00:19:27;101216.53;;;14.54;100.00
18918;BME280;9591;52.742;13.650;2022-07-23T00:22:17;101208.97;;;14.43;100.00
18918;BME280;9591;52.742;13.650;2022-07-23T00:25:05;101196.00;;;14.34;100.00
18918;BME280;9591;52.742;13.650;2022-07-23T00:28:13;101201.44;;;14.31;100.00
18918;BME280;9591;52.742;13.650;2022-07-23T00:31:00;101204.28;;;14.27;100.00
18918;BME280;9591;52.742;13.650;2022-07-23T00:33:47;101204.22;;;14.28;100.00
18918;BME280;9591;52.742;13.650;2022-07-23T00:36:33;101201.50;;;14.30;100.00
18918;BME280;9591;52.742;13.650;2022-07-23T00:39:20;101196.81;;;14.36;100.00
18918;BME280;9591;52.742;13.650;2022-07-23T00:42:08;101200.47;;;14.34;100.00
18918;BME280;9591;52.742;13.650;2022-07-23T00:44:56;101194.50;;;14.27;100.00
18918;BME280;9591;52.742;13.650;2022-07-23T00:47:43;101203.50;;;14.25;100.00
18918;BME280;9591;52.742;13.650;2022-07-23T00:50:31;101195.44;;;14.26;100.00
18918;BME280;9591;52.742;13.650;2022-07-23T00:53:19;101195.50;;;14.25;100.00
18918;BME280;9591;52.742;13.650;2022-07-23T00:56:06;101190.84;;;14.30;100.00
18918;BME280;9591;52.742;13.650;2022-07-23T00:58:53;101195.19;;;14.32;100.00
18918;BME280;9591;52.742;13.650;2022-07-23T01:01:42;101194.25;;;14.33;100.00
18918;BME280;9591;52.742;13.650;2022-07-23T01:04:29;101210.88;;;14.40;100.00
18918;BME280;9591;52.742;13.650;2022-07-23T01:07:16;101206.53;;;14.37;100.00
18918;BME280;9591;52.742;13.650;2022-07-23T01:10:04;101196.84;;;14.35;100.00
18918;BME280;9591;52.742;13.650;2022-07-23T01:13:11;101198.09;;;14.26;100.00
18918;BME280;9591;52.742;13.650;2022-07-23T01:15:58;101216.69;;;14.28;100.00
18918;BME280;9591;52.742;13.650;2022-07-23T01:18:46;101215.75;;;14.29;100.00
18918;BME280;9591;52.742;13.650;2022-07-23T01:21:35;101209.81;;;14.22;100.00
18918;BME280;9591;52.742;13.650;2022-07-23T01:24:24;101216.06;;;14.21;100.00
18918;BME280;9591;52.742;13.650;2022-07-23T01:27:18;101223.13;;;14.22;100.00
18918;BME280;9591;52.742;13.650;2022-07-23T01:30:09;101214.56;;;14.14;100.00
18918;BME280;9591;52.742;13.650;2022-07-23T01:32:55;101210.59;;;14.02;100.00
18918;BME280;9591;52.742;13.650;2022-07-23T01:35:42;101206.38;;;13.97;100.00
18918;BME280;9591;52.742;13.650;2022-07-23T01:38:31;101197.69;;;13.92;100.00
18918;BME280;9591;52.742;13.650;2022-07-23T01:41:20;101186.28;;;13.88;100.00
18918;BME280;9591;52.742;13.650;2022-07-23T01:44:06;101184.44;;;13.90;100.00
18918;BME280;9591;52.742;13.650;2022-07-23T01:46:55;101186.22;;;13.90;100.00
18918;BME280;9591;52.742;13.650;2022-07-23T01:49:42;101174.66;;;13.91;100.00
18918;BME280;9591;52.742;13.650;2022-07-23T01:52:48;101175.69;;;13.87;100.00
18918;BME280;9591;52.742;13.650;2022-07-23T01:55:34;101177.69;;;13.82;100.00
18918;BME280;9591;52.742;13.650;2022-07-23T01:58:23;101182.09;;;13.83;100.00
18918;BME280;9591;52.742;13.650;2022-07-23T02:01:10;101172.38;;;13.82;100.00
18918;BME280;9591;52.742;13.650;2022-07-23T02:03:56;101174.53;;;13.94;100.00
18918;BME280;9591;52.742;13.650;2022-07-23T02:06:43;101177.38;;;13.89;100.00
18918;BME280;9591;52.742;13.650;2022-07-23T02:09:30;101180.09;;;13.88;100.00
18918;BME280;9591;52.742;13.650;2022-07-23T02:12:17;101186.22;;;13.90;100.00
18918;BME280;9591;52.742;13.650;2022-07-23T02:15:06;101181.81;;;13.89;100.00
18918;BME280;9591;52.742;13.650;2022-07-23T02:17:54;101155.94;;;13.70;100.00
18918;BME280;9591;52.742;13.650;2022-07-23T02:20:42;101179.84;;;13.72;100.00
18918;BME280;9591;52.742;13.650;2022-07-23T02:23:30;101190.53;;;13.70;100.00
18918;BME280;9591;52.742;13.650;2022-07-23T02:26:17;101176.25;;;13.73;100.00
18918;BME280;9591;52.742;13.650;2022-07-23T02:29:08;101179.59;;;13.78;100.00
18918;BME280;9591;52.742;13.650;2022-07-23T02:31:56;101182.31;;;13.76;100.00
18918;BME280;9591;52.742;13.650;2022-07-23T02:34:43;101181.97;;;13.86;100.00
18918;BME280;9591;52.742;13.650;2022-07-23T02:37:30;101179.31;;;13.86;100.00
18918;BME280;9591;52.742;13.650;2022-07-23T02:40:17;101176.03;;;14.01;100.00
18918;BME280;9591;52.742;13.650;2022-07-23T02:43:05;101177.91;;;14.21;100.00
18918;BME280;9591;52.742;13.650;2022-07-23T02:45:51;101182.47;;;14.17;100.00
18918;BME280;9591;52.742;13.650;2022-07-23T02:48:40;101186.50;;;14.27;100.00
18918;BME280;9591;52.742;13.650;2022-07-23T02:51:26;101188.94;;;14.33;100.00
18918;BME280;9591;52.742;13.650;2022-07-23T02:54:17;101191.13;;;14.46;100.00
18918;BME280;9591;52.742;13.650;2022-07-23T02:57:04;101186.88;;;14.40;100.00
18918;BME280;9591;52.742;13.650;2022-07-23T02:59:51;101177.06;;;14.42;100.00
18918;BME280;9591;52.742;13.650;2022-07-23T03:02:37;101177.69;;;14.49;100.00
18918;BME280;9591;52.742;13.650;2022-07-23T03:05:26;101178.47;;;14.51;100.00
18918;BME280;9591;52.742;13.650;2022-07-23T03:08:12;101190.94;;;14.50;100.00
18918;BME280;9591;52.742;13.650;2022-07-23T03:11:04;101195.03;;;14.59;100.00
18918;BME280;9591;52.742;13.650;2022-07-23T03:13:53;101192.91;;;14.67;100.00
18918;BME280;9591;52.742;13.650;2022-07-23T03:16:40;101194.09;;;14.60;100.00
18918;BME280;9591;52.742;13.650;2022-07-23T03:19:27;101201.97;;;14.63;100.00
18918;BME280;9591;52.742;13.650;2022-07-23T03:22:15;101182.75;;;14.55;100.00
18918;BME280;9591;52.742;13.650;2022-07-23T03:25:02;101208.50;;;14.76;100.00
18918;BME280;9591;52.742;13.650;2022-07-23T03:27:52;101213.81;;;14.76;100.00
18918;BME280;9591;52.742;13.650;2022-07-23T03:30:39;101203.84;;;14.81;100.00
18918;BME280;9591;52.742;13.650;2022-07-23T03:33:26;101201.44;;;14.95;100.00
18918;BME280;9591;52.742;13.650;2022-07-23T03:36:13;101206.47;;;15.03;100.00
18918;BME280;9591;52.742;13.650;2022-07-23T03:39:04;101201.38;;;14.97;100.00
18918;BME280;9591;52.742;13.650;2022-07-23T03:41:57;101199.53;;;14.99;100.00
18918;BME280;9591;52.742;13.650;2022-07-23T03:44:43;101189.53;;;15.04;100.00
18918;BME280;9591;52.742;13.650;2022-07-23T03:47:30;101195.84;;;15.22;100.00
18918;BME280;9591;52.742;13.650;2022-07-23T03:50:17;101196.00;;;15.19;100.00
18918;BME280;9591;52.742;13.650;2022-07-23T03:53:04;101209.25;;;15.20;100.00
18918;BME280;9591;52.742;13.650;2022-07-23T03:55:53;101205.06;;;15.35;100.00
18918;BME280;9591;52.742;13.650;2022-07-23T03:58:41;101209.88;;;15.27;100.00
18918;BME280;9591;52.742;13.650;2022-07-23T04:01:28;101208.84;;;15.29;100.00
18918;BME280;9591;52.742;13.650;2022-07-23T04:04:16;101212.31;;;15.31;100.00
18918;BME280;9591;52.742;13.650;2022-07-23T04:07:03;101213.31;;;15.29;100.00
18918;BME280;9591;52.742;13.650;2022-07-23T04:09:50;101208.84;;;15.29;100.00
18918;BME280;9591;52.742;13.650;2022-07-23T04:12:38;101211.91;;;15.40;100.00
18918;BME280;9591;52.742;13.650;2022-07-23T04:15:25;101210.38;;;15.35;100.00
18918;BME280;9591;52.742;13.650;2022-07-23T04:18:12;101209.91;;;15.46;100.00
18918;BME280;9591;52.742;13.650;2022-07-23T04:21:11;101211.69;;;15.65;100.00
18918;BME280;9591;52.742;13.650;2022-07-23T04:23:57;101207.78;;;15.72;100.00
18918;BME280;9591;52.742;13.650;2022-07-23T04:26:44;101194.97;;;15.81;100.00
18918;BME280;9591;52.742;13.650;2022-07-23T04:29:32;101202.38;;;15.74;100.00
18918;BME280;9591;52.742;13.650;2022-07-23T04:32:19;101206.00;;;15.73;100.00
18918;BME280;9591;52.742;13.650;2022-07-23T04:35:06;101201.16;;;15.81;100.00
18918;BME280;9591;52.742;13.650;2022-07-23T04:37:53;101196.31;;;15.70;100.00
18918;BME280;9591;52.742;13.650;2022-07-23T04:40:41;101194.88;;;15.63;100.00
18918;BME280;9591;52.742;13.650;2022-07-23T04:43:28;101188.59;;;15.64;100.00
18918;BME280;9591;52.742;13.650;2022-07-23T04:46:16;101191.03;;;15.50;100.00
18918;BME280;9591;52.742;13.650;2022-07-23T04:49:06;101177.03;;;15.45;100.00
18918;BME280;9591;52.742;13.650;2022-07-23T04:51:53;101199.25;;;15.46;100.00
18918;BME280;9591;52.742;13.650;2022-07-23T04:54:39;101195.84;;;15.42;100.00
18918;BME280;9591;52.742;13.650;2022-07-23T04:57:26;101217.06;;;15.25;100.00
18918;BME280;9591;52.742;13.650;2022-07-23T05:00:14;101233.72;;;15.09;100.00
18918;BME280;9591;52.742;13.650;2022-07-23T05:03:02;101245.47;;;15.05;100.00
18918;BME280;9591;52.742;13.650;2022-07-23T05:05:50;101246.47;;;15.03;100.00
18918;BME280;9591;52.742;13.650;2022-07-23T05:08:37;101260.00;;;14.98;100.00
18918;BME280;9591;52.742;13.650;2022-07-23T05:11:24;101261.31;;;14.88;100.00
18918;BME280;9591;52.742;13.650;2022-07-23T05:14:11;101255.03;;;14.89;100.00
18918;BME280;9591;52.742;13.650;2022-07-23T05:16:59;101253.56;;;14.82;100.00
18918;BME280;9591;52.742;13.650;2022-07-23T05:19:47;101265.47;;;14.73;100.00
18918;BME280;9591;52.742;13.650;2022-07-23T05:22:34;101249.69;;;14.69;100.00
18918;BME280;9591;52.742;13.650;2022-07-23T05:25:22;101237.94;;;14.53;100.00
18918;BME280;9591;52.742;13.650;2022-07-23T05:28:09;101228.59;;;14.41;100.00
18918;BME280;9591;52.742;13.650;2022-07-23T05:30:55;101221.16;;;14.27;100.00
18918;BME280;9591;52.742;13.650;2022-07-23T05:33:43;101206.16;;;14.25;100.00
18918;BME280;9591;52.742;13.650;2022-07-23T05:36:32;101191.91;;;14.26;100.00
18918;BME280;9591;52.742;13.650;2022-07-23T05:39:20;101190.09;;;14.26;100.00
18918;BME280;9591;52.742;13.650;2022-07-23T05:42:07;101206.03;;;14.28;100.00
18918;BME280;9591;52.742;13.650;2022-07-23T05:44:56;101211.78;;;14.39;100.00
18918;BME280;9591;52.742;13.650;2022-07-23T05:47:45;101222.94;;;14.50;100.00
18918;BME280;9591;52.742;13.650;2022-07-23T05:50:39;101212.00;;;14.56;100.00
18918;BME280;9591;52.742;13.650;2022-07-23T05:53:38;101227.03;;;14.79;100.00
18918;BME280;9591;52.742;13.650;2022-07-23T05:56:33;101218.66;;;15.08;100.00
18918;BME280;9591;52.742;13.650;2022-07-23T05:59:20;101197.84;;;15.17;100.00
18918;BME280;9591;52.742;13.650;2022-07-23T06:02:07;101197.06;;;14.94;100.00
18918;BME280;9591;52.742;13.650;2022-07-23T06:04:53;101206.13;;;14.90;100.00
18918;BME280;9591;52.742;13.650;2022-07-23T06:07:45;101200.78;;;14.90;100.00
18918;BME280;9591;52.742;13.650;2022-07-23T06:10:35;101212.31;;;14.91;100.00
18918;BME280;9591;52.742;13.650;2022-07-23T06:13:22;101225.59;;;14.92;100.00
18918;BME280;9591;52.742;13.650;2022-07-23T06:16:09;101236.41;;;15.30;100.00
18918;BME280;9591;52.742;13.650;2022-07-23T06:18:55;101247.75;;;15.35;100.00
18918;BME280;9591;52.742;13.650;2022-07-23T06:21:45;101257.03;;;15.26;100.00
18918;BME280;9591;52.742;13.650;2022-07-23T06:24:33;101256.09;;;15.27;100.00
18918;BME280;9591;52.742;13.650;2022-07-23T06:27:22;101254.22;;;15.50;100.00
18918;BME280;9591;52.742;13.650;2022-07-23T06:30:14;101247.34;;;15.64;100.00
18918;BME280;9591;52.742;13.650;2022-07-23T06:33:05;101231.34;;;15.24;100.00
18918;BME280;9591;52.742;13.650;2022-07-23T06:35:52;101219.47;;;15.11;100.00
18918;BME280;9591;52.742;13.650;2022-07-23T06:38:41;101208.78;;;15.11;100.00
18918;BME280;9591;52.742;13.650;2022-07-23T06:41:29;101214.78;;;14.95;100.00
18918;BME280;9591;52.742;13.650;2022-07-23T06:44:22;101218.63;;;14.88;100.00
18918;BME280;9591;52.742;13.650;2022-07-23T06:47:15;101217.84;;;14.86;100.00
18918;BME280;9591;52.742;13.650;2022-07-23T06:50:03;101230.00;;;14.93;100.00
18918;BME280;9591;52.742;13.650;2022-07-23T06:52:50;101233.19;;;15.01;100.00
18918;BME280;9591;52.742;13.650;2022-07-23T06:55:37;101226.53;;;15.12;100.00
18918;BME280;9591;52.742;13.650;2022-07-23T06:58:26;101230.88;;;15.14;100.00
18918;BME280;9591;52.742;13.650;2022-07-23T07:01:16;101221.25;;;15.30;100.00
18918;BME280;9591;52.742;13.650;2022-07-23T07:04:05;101218.66;;;15.29;100.00
18918;BME280;9591;52.742;13.650;2022-07-23T07:06:52;101215.31;;;15.44;100.00
18918;BME280;9591;52.742;13.650;2022-07-23T07:09:41;101207.94;;;15.69;100.00
18918;BME280;9591;52.742;13.650;2022-07-23T07:12:30;101209.59;;;15.72;100.00
18918;BME280;9591;52.742;13.650;2022-07-23T07:15:42;101204.19;;;15.73;100.00
18918;BME280;9591;52.742;13.650;2022-07-23T07:18:30;101202.97;;;15.81;100.00
18918;BME280;9591;52.742;13.650;2022-07-23T07:21:16;101192.19;;;15.63;100.00
18918;BME280;9591;52.742;13.650;2022-07-23T07:24:04;101199.94;;;15.69;100.00
18918;BME280;9591;52.742;13.650;2022-07-23T07:26:52;101198.91;;;15.53;100.00
18918;BME280;9591;52.742;13.650;2022-07-23T07:29:38;101201.84;;;15.47;100.00
18918;BME280;9591;52.742;13.650;2022-07-23T07:32:25;101211.72;;;15.45;100.00
18918;BME280;9591;52.742;13.650;2022-07-23T07:35:33;101233.34;;;15.59;100.00
18918;BME280;9591;52.742;13.650;2022-07-23T07:38:20;101240.66;;;15.54;100.00
18918;BME280;9591;52.742;13.650;2022-07-23T07:41:07;101237.19;;;15.52;100.00
18918;BME280;9591;52.742;13.650;2022-07-23T07:43:55;101238.81;;;15.56;100.00
18918;BME280;9591;52.742;13.650;2022-07-23T07:46:42;101264.47;;;15.79;100.00
18918;BME280;9591;52.742;13.650;2022-07-23T07:49:29;101258.72;;;16.07;100.00
18918;BME280;9591;52.742;13.650;2022-07-23T07:52:20;101257.94;;;16.43;100.00
18918;BME280;9591;52.742;13.650;2022-07-23T07:55:09;101243.91;;;16.37;100.00
18918;BME280;9591;52.742;13.650;2022-07-23T07:57:56;101232.66;;;16.31;100.00
18918;BME280;9591;52.742;13.650;2022-07-23T08:00:47;101226.47;;;16.66;100.00
18918;BME280;9591;52.742;13.650;2022-07-23T08:03:39;101231.34;;;16.76;100.00
18918;BME280;9591;52.742;13.650;2022-07-23T08:06:27;101227.97;;;16.72;100.00
18918;BME280;9591;52.742;13.650;2022-07-23T08:09:15;101230.56;;;16.74;100.00
18918;BME280;9591;52.742;13.650;2022-07-23T08:12:02;101213.91;;;17.20;100.00
18918;BME280;9591;52.742;13.650;2022-07-23T08:14:48;101228.25;;;17.35;100.00
18918;BME280;9591;52.742;13.650;2022-07-23T08:17:35;101228.72;;;17.43;100.00
18918;BME280;9591;52.742;13.650;2022-07-23T08:20:23;101217.22;;;17.58;100.00
18918;BME280;9591;52.742;13.650;2022-07-23T08:23:13;101218.75;;;17.80;100.00
18918;BME280;9591;52.742;13.650;2022-07-23T08:26:01;101208.47;;;17.72;100.00
18918;BME280;9591;52.742;13.650;2022-07-23T08:28:48;101201.47;;;17.69;100.00
18918;BME280;9591;52.742;13.650;2022-07-23T08:31:35;101208.25;;;17.92;100.00
18918;BME280;9591;52.742;13.650;2022-07-23T08:34:21;101219.03;;;17.91;100.00
18918;BME280;9591;52.742;13.650;2022-07-23T08:37:08;101206.16;;;17.82;100.00
18918;BME280;9591;52.742;13.650;2022-07-23T08:39:55;101212.41;;;17.98;100.00
18918;BME280;9591;52.742;13.650;2022-07-23T08:42:44;101210.69;;;18.13;100.00
18918;BME280;9591;52.742;13.650;2022-07-23T08:45:36;101212.28;;;18.31;100.00
18918;BME280;9591;52.742;13.650;2022-07-23T08:48:24;101216.28;;;18.40;100.00
18918;BME280;9591;52.742;13.650;2022-07-23T08:51:12;101209.06;;;18.56;100.00
18918;BME280;9591;52.742;13.650;2022-07-23T08:53:59;101193.00;;;18.40;100.00
18918;BME280;9591;52.742;13.650;2022-07-23T08:56:47;101209.16;;;18.54;100.00
18918;BME280;9591;52.742;13.650;2022-07-23T08:59:36;101212.13;;;18.50;100.00
18918;BME280;9591;52.742;13.650;2022-07-23T09:02:23;101205.63;;;18.54;100.00
18918;BME280;9591;52.742;13.650;2022-07-23T09:05:13;101190.94;;;18.61;100.00
18918;BME280;9591;52.742;13.650;2022-07-23T09:08:11;101201.03;;;18.56;100.00
18918;BME280;9591;52.742;13.650;2022-07-23T09:10:59;101206.13;;;18.76;100.00
18918;BME280;9591;52.742;13.650;2022-07-23T09:13:47;101214.41;;;18.87;100.00
18918;BME280;9591;52.742;13.650;2022-07-23T09:16:35;101205.94;;;18.79;100.00
18918;BME280;9591;52.742;13.650;2022-07-23T09:19:27;101204.91;;;18.82;100.00
18918;BME280;9591;52.742;13.650;2022-07-23T09:22:18;101213.69;;;18.99;100.00
18918;BME280;9591;52.742;13.650;2022-07-23T09:25:14;101208.31;;;19.14;100.00
18918;BME280;9591;52.742;13.650;2022-07-23T09:28:02;101198.50;;;19.43;100.00
18918;BME280;9591;52.742;13.650;2022-07-23T09:30:51;101194.00;;;19.43;100.00
18918;BME280;9591;52.742;13.650;2022-07-23T09:33:40;101201.81;;;19.62;100.00
18918;BME280;9591;52.742;13.650;2022-07-23T09:36:29;101214.44;;;19.46;100.00
18918;BME280;9591;52.742;13.650;2022-07-23T09:39:28;101223.50;;;19.59;100.00
18918;BME280;9591;52.742;13.650;2022-07-23T09:42:18;101227.56;;;19.50;100.00
18918;BME280;9591;52.742;13.650;2022-07-23T09:45:10;101227.03;;;19.59;100.00
18918;BME280;9591;52.742;13.650;2022-07-23T09:48:10;101230.69;;;19.73;100.00
18918;BME280;9591;52.742;13.650;2022-07-23T09:51:03;101225.91;;;19.63;100.00
18918;BME280;9591;52.742;13.650;2022-07-23T09:53:50;101221.75;;;19.58;100.00
18918;BME280;9591;52.742;13.650;2022-07-23T09:56:37;101223.97;;;19.66;100.00
18918;BME280;9591;52.742;13.650;2022-07-23T09:59:26;101237.59;;;19.77;100.00
18918;BME280;9591;52.742;13.650;2022-07-23T10:02:13;101235.84;;;20.04;100.00
18918;BME280;9591;52.742;13.650;2022-07-23T10:05:24;101232.22;;;19.91;100.00
18918;BME280;9591;52.742;13.650;2022-07-23T10:08:34;101238.13;;;20.24;100.00
18918;BME280;9591;52.742;13.650;2022-07-23T10:11:40;101242.22;;;20.30;100.00
18918;BME280;9591;52.742;13.650;2022-07-23T10:14:56;101243.25;;;20.56;100.00
18918;BME280;9591;52.742;13.650;2022-07-23T10:17:43;101232.38;;;20.84;100.00
18918;BME280;9591;52.742;13.650;2022-07-23T10:20:30;101233.50;;;21.07;100.00
18918;BME280;9591;52.742;13.650;2022-07-23T10:23:22;101222.59;;;21.36;100.00
18918;BME280;9591;52.742;13.650;2022-07-23T10:26:17;101225.63;;;21.56;96.13
18918;BME280;9591;52.742;13.650;2022-07-23T10:29:12;101238.66;;;21.50;97.61
18918;BME280;9591;52.742;13.650;2022-07-23T10:32:02;101237.47;;;21.41;94.97
18918;BME280;9591;52.742;13.650;2022-07-23T10:34:55;101245.91;;;20.70;97.96
18918;BME280;9591;52.742;13.650;2022-07-23T10:37:47;101248.66;;;20.56;100.00
18918;BME280;9591;52.742;13.650;2022-07-23T10:40:35;101244.78;;;20.60;100.00
18918;BME280;9591;52.742;13.650;2022-07-23T10:43:23;101243.31;;;20.69;100.00
18918;BME280;9591;52.742;13.650;2022-07-23T10:46:23;101245.72;;;20.86;100.00
18918;BME280;9591;52.742;13.650;2022-07-23T10:49:23;101251.34;;;20.95;89.88
18918;BME280;9591;52.742;13.650;2022-07-23T10:52:21;101245.50;;;20.76;100.00
18918;BME280;9591;52.742;13.650;2022-07-23T10:55:41;101242.09;;;20.60;100.00
18918;BME280;9591;52.742;13.650;2022-07-23T10:58:47;101242.59;;;20.52;100.00
18918;BME280;9591;52.742;13.650;2022-07-23T11:01:35;101237.38;;;20.64;100.00
18918;BME280;9591;52.742;13.650;2022-07-23T11:04:49;101239.59;;;20.57;100.00
18918;BME280;9591;52.742;13.650;2022-07-23T11:11:11;101236.72;;;21.00;100.00
18918;BME280;9591;52.742;13.650;2022-07-23T11:13:59;101231.69;;;21.20;100.00
18918;BME280;9591;52.742;13.650;2022-07-23T11:16:47;101224.84;;;21.29;100.00
18918;BME280;9591;52.742;13.650;2022-07-23T11:22:52;101225.13;;;21.88;88.11
18918;BME280;9591;52.742;13.650;2022-07-23T11:25:40;101226.34;;;21.84;91.22
18918;BME280;9591;52.742;13.650;2022-07-23T11:28:27;101218.78;;;21.89;85.82
18918;BME280;9591;52.742;13.650;2022-07-23T11:31:18;101223.22;;;22.03;91.27
18918;BME280;9591;52.742;13.650;2022-07-23T11:34:39;101205.06;;;22.17;91.31
18918;BME280;9591;52.742;13.650;2022-07-23T11:37:28;101204.75;;;22.09;91.23
18918;BME280;9591;52.742;13.650;2022-07-23T11:40:16;101215.66;;;22.08;92.57
18918;BME280;9591;52.742;13.650;2022-07-23T11:43:05;101211.44;;;22.04;75.41
18918;BME280;9591;52.742;13.650;2022-07-23T11:45:54;101198.81;;;22.04;77.04
18918;BME280;9591;52.742;13.650;2022-07-23T11:48:44;101207.94;;;22.27;85.36
18918;BME280;9591;52.742;13.650;2022-07-23T11:51:31;101216.09;;;22.62;80.67
18918;BME280;9591;52.742;13.650;2022-07-23T11:54:18;101215.63;;;22.68;80.72
18918;BME280;9591;52.742;13.650;2022-07-23T11:57:04;101209.94;;;22.60;81.00
18918;BME280;9591;52.742;13.650;2022-07-23T11:59:54;101201.69;;;22.50;81.94
18918;BME280;9591;52.742;13.650;2022-07-23T12:02:43;101208.53;;;22.43;88.08
18918;BME280;9591;52.742;13.650;2022-07-23T12:05:33;101206.91;;;22.41;85.61
18918;BME280;9591;52.742;13.650;2022-07-23T12:08:20;101199.34;;;22.09;84.36
18918;BME280;9591;52.742;13.650;2022-07-23T12:11:07;101197.91;;;22.29;87.09
18918;BME280;9591;52.742;13.650;2022-07-23T12:13:56;101204.38;;;22.74;81.77
18918;BME280;9591;52.742;13.650;2022-07-23T12:16:43;101206.91;;;22.88;78.38
18918;BME280;9591;52.742;13.650;2022-07-23T12:19:29;101205.44;;;22.84;77.66
18918;BME280;9591;52.742;13.650;2022-07-23T12:22:17;101202.78;;;22.96;82.18
18918;BME280;9591;52.742;13.650;2022-07-23T12:25:07;101137.03;;;22.49;79.24
18918;BME280;9591;52.742;13.650;2022-07-23T12:28:03;101186.28;;;22.64;78.42
18918;BME280;9591;52.742;13.650;2022-07-23T12:30:51;101200.47;;;22.78;75.80
18918;BME280;9591;52.742;13.650;2022-07-23T12:33:39;101207.03;;;22.87;81.79
18918;BME280;9591;52.742;13.650;2022-07-23T12:36:37;101205.56;;;22.70;83.59
18918;BME280;9591;52.742;13.650;2022-07-23T12:39:32;101201.16;;;22.69;80.26
18918;BME280;9591;52.742;13.650;2022-07-23T12:42:19;101207.88;;;22.64;77.47
18918;BME280;9591;52.742;13.650;2022-07-23T12:45:08;101195.31;;;22.51;81.34
18918;BME280;9591;52.742;13.650;2022-07-23T12:48:02;101210.78;;;22.49;81.78
18918;BME280;9591;52.742;13.650;2022-07-23T12:50:52;101206.50;;;22.58;85.83
18918;BME280;9591;52.742;13.650;2022-07-23T12:53:41;101207.56;;;22.44;91.45
18918;BME280;9591;52.742;13.650;2022-07-23T12:56:32;101214.44;;;22.48;85.98
18918;BME280;9591;52.742;13.650;2022-07-23T12:59:19;101206.50;;;22.58;80.62
18918;BME280;9591;52.742;13.650;2022-07-23T13:02:08;101212.47;;;22.74;78.78
18918;BME280;9591;52.742;13.650;2022-07-23T13:04:57;101213.00;;;22.79;80.92
18918;BME280;9591;52.742;13.650;2022-07-23T13:07:46;101214.19;;;22.99;79.18
18918;BME280;9591;52.742;13.650;2022-07-23T13:10:33;101214.59;;;23.06;83.82
18918;BME280;9591;52.742;13.650;2022-07-23T13:13:22;101206.66;;;23.27;76.27
18918;BME280;9591;52.742;13.650;2022-07-23T13:16:14;101207.78;;;23.24;74.89
18918;BME280;9591;52.742;13.650;2022-07-23T13:19:01;101205.44;;;22.84;78.72
18918;BME280;9591;52.742;13.650;2022-07-23T13:21:49;101199.88;;;22.51;80.45
18918;BME280;9591;52.742;13.650;2022-07-23T13:24:36;101201.22;;;22.33;84.62
18918;BME280;9591;52.742;13.650;2022-07-23T13:27:24;101206.00;;;22.29;90.68
18918;BME280;9591;52.742;13.650;2022-07-23T13:30:12;101197.84;;;22.42;82.86
18918;BME280;9591;52.742;13.650;2022-07-23T13:33:01;101178.97;;;22.05;87.63
18918;BME280;9591;52.742;13.650;2022-07-23T13:35:49;101197.63;;;22.08;85.85
18918;BME280;9591;52.742;13.650;2022-07-23T13:38:36;101198.38;;;22.10;94.39
18918;BME280;9591;52.742;13.650;2022-07-23T13:41:24;101198.47;;;22.45;84.36
18918;BME280;9591;52.742;13.650;2022-07-23T13:44:11;101194.75;;;22.83;79.81
18918;BME280;9591;52.742;13.650;2022-07-23T13:47:01;101195.41;;;22.98;80.86
18918;BME280;9591;52.742;13.650;2022-07-23T13:49:49;101194.06;;;23.03;72.49
18918;BME280;9591;52.742;13.650;2022-07-23T13:52:35;101198.97;;;22.74;77.65
18918;BME280;9591;52.742;13.650;2022-07-23T13:55:22;101197.00;;;23.00;75.67
18918;BME280;9591;52.742;13.650;2022-07-23T13:58:12;101191.88;;;23.08;79.05
18918;BME280;9591;52.742;13.650;2022-07-23T14:00:59;101194.66;;;23.31;74.32
18918;BME280;9591;52.742;13.650;2022-07-23T14:03:48;101193.53;;;23.33;76.28
18918;BME280;9591;52.742;13.650;2022-07-23T14:06:34;101192.06;;;23.51;75.75
18918;BME280;9591;52.742;13.650;2022-07-23T14:09:21;101190.16;;;23.87;71.67
18918;BME280;9591;52.742;13.650;2022-07-23T14:12:09;101184.97;;;24.06;71.15
18918;BME280;9591;52.742;13.650;2022-07-23T14:14:56;101178.69;;;24.17;67.76
18918;BME280;9591;52.742;13.650;2022-07-23T14:17:45;101183.50;;;23.91;71.20
18918;BME280;9591;52.742;13.650;2022-07-23T14:20:33;101188.53;;;23.73;71.13
18918;BME280;9591;52.742;13.650;2022-07-23T14:23:20;101193.28;;;23.47;71.18
18918;BME280;9591;52.742;13.650;2022-07-23T14:26:08;101186.91;;;23.26;73.20
18918;BME280;9591;52.742;13.650;2022-07-23T14:28:55;101179.41;;;23.52;73.23
18918;BME280;9591;52.742;13.650;2022-07-23T14:31:42;101184.38;;;23.80;69.87
18918;BME280;9591;52.742;13.650;2022-07-23T14:34:32;101189.28;;;23.98;66.68
18918;BME280;9591;52.742;13.650;2022-07-23T14:37:22;101190.84;;;24.11;65.18
18918;BME280;9591;52.742;13.650;2022-07-23T14:40:10;101187.28;;;24.11;63.33
18918;BME280;9591;52.742;13.650;2022-07-23T14:42:56;101186.59;;;23.75;65.80
18918;BME280;9591;52.742;13.650;2022-07-23T14:45:43;101178.72;;;23.61;66.46